sensor_id;sensor_type;location;lat;lon;timestamp;pressure;altitude;pressure_sealevel;temperature;humidity
79230;BME280;68663;49.122;17.544;2023-08-06T00:00:12;98019.00;;;24.80;56.08
79230;BME280;68663;49.122;17.544;2023-08-06T00:02:37;98029.53;;;24.79;55.98
79230;BME280;68663;49.122;17.544;2023-08-06T00:05:03;98032.34;;;24.79;55.91
79230;BME280;68663;49.122;17.544;2023-08-06T00:07:28;98023.06;;;24.78;55.92
79230;BME280;68663;49.122;17.544;2023-08-06T00:09:53;98021.34;;;24.81;56.00
79230;BME280;68663;49.122;17.544;2023-08-06T00:12:19;98017.75;;;24.81;55.91
79230;BME280;68663;49.122;17.544;2023-08-06T00:14:44;98002.03;;;24.80;55.88
79230;BME280;68663;49.122;17.544;2023-08-06T00:17:10;98004.41;;;24.81;55.80
79230;BME280;68663;49.122;17.544;2023-08-06T00:19:35;98004.41;;;24.81;56.00
79230;BME280;68663;49.122;17.544;2023-08-06T00:22:01;97999.53;;;24.82;55.65
79230;BME280;68663;49.122;17.544;2023-08-06T00:24:27;98001.56;;;24.81;55.88
79230;BME280;68663;49.122;17.544;2023-08-06T00:26:52;98012.09;;;24.81;55.76
79230;BME280;68663;49.122;17.544;2023-08-06T00:29:18;98005.66;;;24.80;55.87
79230;BME280;68663;49.122;17.544;2023-08-06T00:31:43;98012.56;;;24.79;55.80
79230;BME280;68663;49.122;17.544;2023-08-06T00:34:08;98006.13;;;24.78;56.08
79230;BME280;68663;49.122;17.544;2023-08-06T00:36:34;97999.69;;;24.78;55.95
79230;BME280;68663;49.122;17.544;2023-08-06T00:38:59;97985.22;;;24.76;55.49
79230;BME280;68663;49.122;17.544;2023-08-06T00:41:26;97979.56;;;24.76;55.64
79230;BME280;68663;49.122;17.544;2023-08-06T00:43:52;97964.19;;;24.77;55.95
79230;BME280;68663;49.122;17.544;2023-08-06T00:46:17;97972.66;;;24.77;55.56
79230;BME280;68663;49.122;17.544;2023-08-06T00:48:43;97964.19;;;24.77;55.67
79230;BME280;68663;49.122;17.544;2023-08-06T00:51:10;97965.75;;;24.78;55.53
79230;BME280;68663;49.122;17.544;2023-08-06T00:53:37;97936.72;;;24.77;55.51
79230;BME280;68663;49.122;17.544;2023-08-06T00:56:04;97902.31;;;24.79;55.85
79230;BME280;68663;49.122;17.544;2023-08-06T00:58:29;97907.97;;;24.79;55.57
79230;BME280;68663;49.122;17.544;2023-08-06T01:00:55;97916.44;;;24.79;55.43
79230;BME280;68663;49.122;17.544;2023-08-06T01:03:20;97922.09;;;24.79;55.45
79230;BME280;68663;49.122;17.544;2023-08-06T01:05:46;97920.53;;;24.78;55.81
79230;BME280;68663;49.122;17.544;2023-08-06T01:08:49;97917.22;;;24.80;55.66
79230;BME280;68663;49.122;17.544;2023-08-06T01:14:05;97906.41;;;24.78;55.92
79230;BME280;68663;49.122;17.544;2023-08-06T01:16:33;97902.00;;;24.77;55.91
79230;BME280;68663;49.122;17.544;2023-08-06T01:18:58;97894.78;;;24.76;55.59
79230;BME280;68663;49.122;17.544;2023-08-06T01:21:24;97903.25;;;24.76;55.67
79230;BME280;68663;49.122;17.544;2023-08-06T01:23:49;97888.03;;;24.73;55.71
79230;BME280;68663;49.122;17.544;2023-08-06T01:29:13;97881.91;;;24.75;55.63
79230;BME280;68663;49.122;17.544;2023-08-06T01:31:41;97872.16;;;24.76;55.46
79230;BME280;68663;49.122;17.544;2023-08-06T01:34:17;97859.28;;;24.75;55.34
79230;BME280;68663;49.122;17.544;2023-08-06T01:36:43;97860.84;;;24.76;55.45
79230;BME280;68663;49.122;17.544;2023-08-06T01:39:09;97867.28;;;24.76;55.48
79230;BME280;68663;49.122;17.544;2023-08-06T01:41:35;97858.81;;;24.76;55.45
79230;BME280;68663;49.122;17.544;2023-08-06T01:44:00;97868.88;;;24.77;55.59
79230;BME280;68663;49.122;17.544;2023-08-06T01:46:26;97870.91;;;24.77;55.52
79230;BME280;68663;49.122;17.544;2023-08-06T01:48:51;97861.19;;;24.78;55.32
79230;BME280;68663;49.122;17.544;2023-08-06T01:51:16;97862.44;;;24.77;55.39
79230;BME280;68663;49.122;17.544;2023-08-06T01:53:42;97858.34;;;24.78;55.57
79230;BME280;68663;49.122;17.544;2023-08-06T01:56:07;97859.59;;;24.77;55.43
79230;BME280;68663;49.122;17.544;2023-08-06T01:58:33;97855.22;;;24.76;55.58
79230;BME280;68663;49.122;17.544;2023-08-06T02:03:54;97844.84;;;24.73;55.66
79230;BME280;68663;49.122;17.544;2023-08-06T02:06:20;97839.19;;;24.73;55.71
79230;BME280;68663;49.122;17.544;2023-08-06T02:08:45;97829.16;;;24.72;55.67
79230;BME280;68663;49.122;17.544;2023-08-06T02:11:10;97830.41;;;24.71;55.57
79230;BME280;68663;49.122;17.544;2023-08-06T02:13:36;97821.44;;;24.72;55.86
79230;BME280;68663;49.122;17.544;2023-08-06T02:16:01;97817.06;;;24.71;55.66
79230;BME280;68663;49.122;17.544;2023-08-06T02:18:27;97812.97;;;24.72;55.32
79230;BME280;68663;49.122;17.544;2023-08-06T02:20:59;97815.31;;;24.74;55.52
79230;BME280;68663;49.122;17.544;2023-08-06T02:23:25;97816.59;;;24.73;55.50
79230;BME280;68663;49.122;17.544;2023-08-06T02:26:00;97811.72;;;24.73;55.51
79230;BME280;68663;49.122;17.544;2023-08-06T02:28:26;97820.97;;;24.74;55.70
79230;BME280;68663;49.122;17.544;2023-08-06T02:30:51;97804.03;;;24.74;55.47
79230;BME280;68663;49.122;17.544;2023-08-06T02:33:17;97806.06;;;24.73;55.74
79230;BME280;68663;49.122;17.544;2023-08-06T02:35:42;97814.06;;;24.75;55.51
79230;BME280;68663;49.122;17.544;2023-08-06T02:38:08;97803.53;;;24.75;55.65
79230;BME280;68663;49.122;17.544;2023-08-06T02:40:33;97801.97;;;24.74;55.41
79230;BME280;68663;49.122;17.544;2023-08-06T02:42:58;97800.41;;;24.73;55.83
79230;BME280;68663;49.122;17.544;2023-08-06T02:45:24;97798.38;;;24.74;55.63
79230;BME280;68663;49.122;17.544;2023-08-06T02:47:49;97798.06;;;24.72;55.44
79230;BME280;68663;49.122;17.544;2023-08-06T02:50:15;97802.13;;;24.71;55.74
79230;BME280;68663;49.122;17.544;2023-08-06T02:52:40;97796.47;;;24.71;55.65
79230;BME280;68663;49.122;17.544;2023-08-06T02:55:06;97791.00;;;24.67;55.83
79230;BME280;68663;49.122;17.544;2023-08-06T02:57:32;97796.16;;;24.69;55.78
79230;BME280;68663;49.122;17.544;2023-08-06T02:59:57;97791.31;;;24.69;55.62
79230;BME280;68663;49.122;17.544;2023-08-06T03:02:23;97793.34;;;24.69;55.81
79230;BME280;68663;49.122;17.544;2023-08-06T03:04:48;97790.03;;;24.70;55.37
79230;BME280;68663;49.122;17.544;2023-08-06T03:07:14;97790.84;;;24.71;55.51
79230;BME280;68663;49.122;17.544;2023-08-06T03:09:39;97797.28;;;24.71;55.39
79230;BME280;68663;49.122;17.544;2023-08-06T03:12:05;97791.63;;;24.71;55.75
79230;BME280;68663;49.122;17.544;2023-08-06T03:14:30;97796.00;;;24.72;55.59
79230;BME280;68663;49.122;17.544;2023-08-06T03:16:56;97803.72;;;24.72;55.24
79230;BME280;68663;49.122;17.544;2023-08-06T03:19:21;97800.88;;;24.72;55.51
79230;BME280;68663;49.122;17.544;2023-08-06T03:21:47;97807.31;;;24.72;55.54
79230;BME280;68663;49.122;17.544;2023-08-06T03:24:13;97805.28;;;24.73;55.49
79230;BME280;68663;49.122;17.544;2023-08-06T03:26:39;97817.06;;;24.71;55.53
79230;BME280;68663;49.122;17.544;2023-08-06T03:29:04;97819.09;;;24.71;55.38
79230;BME280;68663;49.122;17.544;2023-08-06T03:31:30;97822.38;;;24.69;55.77
79230;BME280;68663;49.122;17.544;2023-08-06T03:33:55;97815.97;;;24.69;55.67
79230;BME280;68663;49.122;17.544;2023-08-06T03:36:21;97806.69;;;24.68;55.53
79230;BME280;68663;49.122;17.544;2023-08-06T03:38:47;97802.78;;;24.66;55.38
79230;BME280;68663;49.122;17.544;2023-08-06T03:41:12;97807.16;;;24.67;55.58
79230;BME280;68663;49.122;17.544;2023-08-06T03:43:38;97808.72;;;24.68;55.41
79230;BME280;68663;49.122;17.544;2023-08-06T03:46:03;97805.91;;;24.68;55.36
79230;BME280;68663;49.122;17.544;2023-08-06T03:48:29;97794.59;;;24.68;55.32
79230;BME280;68663;49.122;17.544;2023-08-06T03:50:54;97791.00;;;24.67;55.20
79230;BME280;68663;49.122;17.544;2023-08-06T03:53:19;97784.09;;;24.68;55.60
79230;BME280;68663;49.122;17.544;2023-08-06T03:55:45;97777.16;;;24.69;55.50
79230;BME280;68663;49.122;17.544;2023-08-06T03:58:10;97779.53;;;24.71;55.37
79230;BME280;68663;49.122;17.544;2023-08-06T04:00:36;97783.59;;;24.70;55.46
79230;BME280;68663;49.122;17.544;2023-08-06T04:03:01;97784.41;;;24.70;55.43
79230;BME280;68663;49.122;17.544;2023-08-06T04:05:26;97788.00;;;24.71;55.48
79230;BME280;68663;49.122;17.544;2023-08-06T04:07:52;97794.91;;;24.70;55.28
79230;BME280;68663;49.122;17.544;2023-08-06T04:10:17;97803.41;;;24.70;55.43
79230;BME280;68663;49.122;17.544;2023-08-06T04:12:43;97803.88;;;24.68;55.68
79230;BME280;68663;49.122;17.544;2023-08-06T04:15:08;97803.06;;;24.68;55.43
79230;BME280;68663;49.122;17.544;2023-08-06T04:17:34;97797.91;;;24.66;55.53
79230;BME280;68663;49.122;17.544;2023-08-06T04:19:59;97794.28;;;24.66;55.17
79230;BME280;68663;49.122;17.544;2023-08-06T04:22:25;97792.72;;;24.65;55.47
79230;BME280;68663;49.122;17.544;2023-08-06T04:24:50;97793.97;;;24.64;55.36
79230;BME280;68663;49.122;17.544;2023-08-06T04:27:17;97798.38;;;24.65;55.61
79230;BME280;68663;49.122;17.544;2023-08-06T04:29:43;97795.53;;;24.65;55.18
79230;BME280;68663;49.122;17.544;2023-08-06T04:32:09;97799.94;;;24.66;55.40
79230;BME280;68663;49.122;17.544;2023-08-06T04:34:36;97797.91;;;24.66;55.24
79230;BME280;68663;49.122;17.544;2023-08-06T04:37:03;97791.00;;;24.67;55.46
79230;BME280;68663;49.122;17.544;2023-08-06T04:39:29;97797.44;;;24.68;55.41
79230;BME280;68663;49.122;17.544;2023-08-06T04:41:57;97795.06;;;24.66;55.36
79230;BME280;68663;49.122;17.544;2023-08-06T04:44:23;97790.22;;;24.67;55.41
79230;BME280;68663;49.122;17.544;2023-08-06T04:46:48;97793.03;;;24.67;55.28
79230;BME280;68663;49.122;17.544;2023-08-06T04:49:14;97790.22;;;24.67;55.32
79230;BME280;68663;49.122;17.544;2023-08-06T04:51:39;97791.78;;;24.68;55.53
79230;BME280;68663;49.122;17.544;2023-08-06T04:54:05;97784.56;;;24.67;55.32
79230;BME280;68663;49.122;17.544;2023-08-06T04:56:30;97790.22;;;24.67;55.41
79230;BME280;68663;49.122;17.544;2023-08-06T04:58:57;97788.63;;;24.66;55.18
79230;BME280;68663;49.122;17.544;2023-08-06T05:01:22;97787.84;;;24.65;55.07
79230;BME280;68663;49.122;17.544;2023-08-06T05:03:48;97799.63;;;24.64;55.14
79230;BME280;68663;49.122;17.544;2023-08-06T05:06:13;97798.84;;;24.63;55.29
79230;BME280;68663;49.122;17.544;2023-08-06T05:08:39;97803.41;;;24.61;55.29
79230;BME280;68663;49.122;17.544;2023-08-06T05:11:04;97805.75;;;24.62;55.39
79230;BME280;68663;49.122;17.544;2023-08-06T05:13:29;97812.19;;;24.63;55.32
79230;BME280;68663;49.122;17.544;2023-08-06T05:15:55;97801.66;;;24.63;55.35
79230;BME280;68663;49.122;17.544;2023-08-06T05:18:20;97799.63;;;24.64;55.24
79230;BME280;68663;49.122;17.544;2023-08-06T05:20:46;97803.25;;;24.64;55.15
79230;BME280;68663;49.122;17.544;2023-08-06T05:23:11;97800.41;;;24.64;55.32
79230;BME280;68663;49.122;17.544;2023-08-06T05:25:40;97801.19;;;24.65;55.32
79230;BME280;68663;49.122;17.544;2023-08-06T05:28:06;97805.59;;;24.66;55.20
79230;BME280;68663;49.122;17.544;2023-08-06T05:30:31;97799.94;;;24.66;55.18
79230;BME280;68663;49.122;17.544;2023-08-06T05:32:57;97794.28;;;24.66;55.22
79230;BME280;68663;49.122;17.544;2023-08-06T05:35:22;97795.53;;;24.65;55.32
79230;BME280;68663;49.122;17.544;2023-08-06T05:37:49;97799.16;;;24.65;55.04
79230;BME280;68663;49.122;17.544;2023-08-06T05:40:15;97809.69;;;24.65;55.09
79230;BME280;68663;49.122;17.544;2023-08-06T05:42:40;97812.19;;;24.63;55.36
79230;BME280;68663;49.122;17.544;2023-08-06T05:45:07;97815.00;;;24.63;55.28
79230;BME280;68663;49.122;17.544;2023-08-06T05:47:33;97817.84;;;24.63;55.61
79230;BME280;68663;49.122;17.544;2023-08-06T05:49:58;97821.91;;;24.62;55.23
79230;BME280;68663;49.122;17.544;2023-08-06T05:52:23;97826.00;;;24.61;55.34
79230;BME280;68663;49.122;17.544;2023-08-06T05:54:49;97813.13;;;24.60;55.31
79230;BME280;68663;49.122;17.544;2023-08-06T05:57:15;97816.28;;;24.62;55.16
79230;BME280;68663;49.122;17.544;2023-08-06T05:59:41;97809.06;;;24.61;55.43
79230;BME280;68663;49.122;17.544;2023-08-06T06:02:06;97808.56;;;24.62;55.33
79230;BME280;68663;49.122;17.544;2023-08-06T06:04:32;97812.19;;;24.63;55.29
79230;BME280;68663;49.122;17.544;2023-08-06T06:06:57;97812.19;;;24.63;55.25
79230;BME280;68663;49.122;17.544;2023-08-06T06:09:22;97806.53;;;24.63;55.35
79230;BME280;68663;49.122;17.544;2023-08-06T06:11:48;97805.75;;;24.62;55.74
79230;BME280;68663;49.122;17.544;2023-08-06T06:14:18;97809.69;;;24.65;56.11
79230;BME280;68663;49.122;17.544;2023-08-06T06:16:44;97803.25;;;24.64;55.91
79230;BME280;68663;49.122;17.544;2023-08-06T06:19:10;97811.25;;;24.66;55.76
79230;BME280;68663;49.122;17.544;2023-08-06T06:21:35;97812.50;;;24.65;56.07
79230;BME280;68663;49.122;17.544;2023-08-06T06:24:03;97808.88;;;24.64;56.09
79230;BME280;68663;49.122;17.544;2023-08-06T06:26:29;97811.41;;;24.62;55.56
79230;BME280;68663;49.122;17.544;2023-08-06T06:28:54;97813.13;;;24.60;56.20
79230;BME280;68663;49.122;17.544;2023-08-06T06:31:20;97820.34;;;24.61;56.07
79230;BME280;68663;49.122;17.544;2023-08-06T06:33:45;97813.91;;;24.60;56.02
79230;BME280;68663;49.122;17.544;2023-08-06T06:36:10;97817.38;;;24.55;56.00
79230;BME280;68663;49.122;17.544;2023-08-06T06:38:36;97816.59;;;24.55;55.94
79230;BME280;68663;49.122;17.544;2023-08-06T06:41:02;97808.41;;;24.57;56.48
79230;BME280;68663;49.122;17.544;2023-08-06T06:43:28;97809.69;;;24.56;56.29
79230;BME280;68663;49.122;17.544;2023-08-06T06:45:58;97814.84;;;24.57;56.20
79230;BME280;68663;49.122;17.544;2023-08-06T06:48:26;97815.66;;;24.58;56.09
79230;BME280;68663;49.122;17.544;2023-08-06T06:50:52;97809.06;;;24.61;56.33
79230;BME280;68663;49.122;17.544;2023-08-06T06:53:17;97813.13;;;24.60;56.49
79230;BME280;68663;49.122;17.544;2023-08-06T06:55:43;97818.00;;;24.59;56.82
79230;BME280;68663;49.122;17.544;2023-08-06T06:58:08;97820.34;;;24.61;56.62
79230;BME280;68663;49.122;17.544;2023-08-06T07:00:36;97814.69;;;24.61;56.57
79230;BME280;68663;49.122;17.544;2023-08-06T07:03:02;97821.91;;;24.62;56.42
79230;BME280;68663;49.122;17.544;2023-08-06T07:05:28;97825.69;;;24.59;55.98
79230;BME280;68663;49.122;17.544;2023-08-06T07:07:53;97823.66;;;24.59;56.16
79230;BME280;68663;49.122;17.544;2023-08-06T07:10:18;97825.38;;;24.57;55.39
79230;BME280;68663;49.122;17.544;2023-08-06T07:12:44;97831.03;;;24.57;55.54
79230;BME280;68663;49.122;17.544;2023-08-06T07:15:09;97827.88;;;24.55;55.04
79230;BME280;68663;49.122;17.544;2023-08-06T07:17:35;97829.63;;;24.52;55.10
79230;BME280;68663;49.122;17.544;2023-08-06T07:20:00;97832.75;;;24.54;54.91
79230;BME280;68663;49.122;17.544;2023-08-06T07:22:26;97827.88;;;24.55;54.62
79230;BME280;68663;49.122;17.544;2023-08-06T07:24:51;97826.63;;;24.56;54.56
79230;BME280;68663;49.122;17.544;2023-08-06T07:27:17;97822.56;;;24.57;54.44
79230;BME280;68663;49.122;17.544;2023-08-06T07:29:42;97816.91;;;24.57;54.31
79230;BME280;68663;49.122;17.544;2023-08-06T07:32:08;97815.66;;;24.58;54.34
79230;BME280;68663;49.122;17.544;2023-08-06T07:34:33;97820.50;;;24.57;54.18
79230;BME280;68663;49.122;17.544;2023-08-06T07:36:59;97815.66;;;24.58;54.26
79230;BME280;68663;49.122;17.544;2023-08-06T07:39:24;97814.06;;;24.57;53.95
79230;BME280;68663;49.122;17.544;2023-08-06T07:41:50;97822.56;;;24.57;53.97
79230;BME280;68663;49.122;17.544;2023-08-06T07:44:15;97818.94;;;24.56;53.61
79230;BME280;68663;49.122;17.544;2023-08-06T07:46:41;97823.81;;;24.56;53.76
79230;BME280;68663;49.122;17.544;2023-08-06T07:49:07;97825.38;;;24.57;53.83
79230;BME280;68663;49.122;17.544;2023-08-06T07:51:33;97823.81;;;24.56;54.00
79230;BME280;68663;49.122;17.544;2023-08-06T07:53:58;97834.00;;;24.53;53.80
79230;BME280;68663;49.122;17.544;2023-08-06T07:56:23;97827.88;;;24.55;53.78
79230;BME280;68663;49.122;17.544;2023-08-06T07:58:49;97824.75;;;24.53;53.51
79230;BME280;68663;49.122;17.544;2023-08-06T08:01:14;97819.09;;;24.53;53.31
79230;BME280;68663;49.122;17.544;2023-08-06T08:03:40;97825.69;;;24.50;53.78
79230;BME280;68663;49.122;17.544;2023-08-06T08:06:05;97824.75;;;24.53;53.30
79230;BME280;68663;49.122;17.544;2023-08-06T08:08:31;97820.03;;;24.50;53.32
79230;BME280;68663;49.122;17.544;2023-08-06T08:10:56;97825.69;;;24.50;53.35
79230;BME280;68663;49.122;17.544;2023-08-06T08:13:24;97822.53;;;24.48;53.14
79230;BME280;68663;49.122;17.544;2023-08-06T08:15:49;97822.53;;;24.48;53.08
79230;BME280;68663;49.122;17.544;2023-08-06T08:18:15;97808.88;;;24.46;53.05
79230;BME280;68663;49.122;17.544;2023-08-06T08:20:40;97816.91;;;24.48;53.25
79230;BME280;68663;49.122;17.544;2023-08-06T08:23:06;97824.13;;;24.49;53.44
79230;BME280;68663;49.122;17.544;2023-08-06T08:25:31;97805.13;;;24.49;53.22
79230;BME280;68663;49.122;17.544;2023-08-06T08:27:57;97811.25;;;24.48;53.26
79230;BME280;68663;49.122;17.544;2023-08-06T08:30:22;97811.25;;;24.48;53.25
79230;BME280;68663;49.122;17.544;2023-08-06T08:32:50;97805.91;;;24.50;53.10
79230;BME280;68663;49.122;17.544;2023-08-06T08:35:15;97803.09;;;24.50;53.05
79230;BME280;68663;49.122;17.544;2023-08-06T08:37:42;97805.13;;;24.49;53.17
79230;BME280;68663;49.122;17.544;2023-08-06T08:40:08;97805.13;;;24.49;53.16
79230;BME280;68663;49.122;17.544;2023-08-06T08:42:35;97804.03;;;24.47;53.44
79230;BME280;68663;49.122;17.544;2023-08-06T08:45:02;97810.47;;;24.47;53.42
79230;BME280;68663;49.122;17.544;2023-08-06T08:47:27;97798.84;;;24.45;53.63
79230;BME280;68663;49.122;17.544;2023-08-06T08:49:54;97799.00;;;24.41;53.52
79230;BME280;68663;49.122;17.544;2023-08-06T08:52:23;97794.91;;;24.42;53.62
79230;BME280;68663;49.122;17.544;2023-08-06T08:54:51;97807.78;;;24.43;53.64
79230;BME280;68663;49.122;17.544;2023-08-06T08:57:18;97801.66;;;24.45;55.10
79230;BME280;68663;49.122;17.544;2023-08-06T08:59:44;97799.94;;;24.48;55.04
79230;BME280;68663;49.122;17.544;2023-08-06T09:02:12;97806.84;;;24.47;54.60
79230;BME280;68663;49.122;17.544;2023-08-06T09:04:39;97804.81;;;24.47;54.59
79230;BME280;68663;49.122;17.544;2023-08-06T09:07:07;97807.94;;;24.49;54.21
79230;BME280;68663;49.122;17.544;2023-08-06T09:09:34;97810.00;;;24.49;54.20
79230;BME280;68663;49.122;17.544;2023-08-06T09:12:14;97808.72;;;24.50;53.92
79230;BME280;68663;49.122;17.544;2023-08-06T09:14:40;97812.81;;;24.49;53.66
79230;BME280;68663;49.122;17.544;2023-08-06T09:17:05;97824.13;;;24.49;53.79
79230;BME280;68663;49.122;17.544;2023-08-06T09:19:31;97816.91;;;24.48;53.68
79230;BME280;68663;49.122;17.544;2023-08-06T09:21:59;97824.13;;;24.49;53.44
79230;BME280;68663;49.122;17.544;2023-08-06T09:24:25;97826.94;;;24.49;53.64
79230;BME280;68663;49.122;17.544;2023-08-06T09:26:52;97837.00;;;24.50;53.66
79230;BME280;68663;49.122;17.544;2023-08-06T09:29:17;97833.38;;;24.49;53.71
79230;BME280;68663;49.122;17.544;2023-08-06T09:31:53;97839.03;;;24.49;54.04
79230;BME280;68663;49.122;17.544;2023-08-06T09:34:20;97845.94;;;24.48;53.86
79230;BME280;68663;49.122;17.544;2023-08-06T09:36:54;97846.72;;;24.49;53.74
79230;BME280;68663;49.122;17.544;2023-08-06T09:39:41;97845.94;;;24.48;53.49
79230;BME280;68663;49.122;17.544;2023-08-06T09:42:09;97853.63;;;24.48;53.85
79230;BME280;68663;49.122;17.544;2023-08-06T09:44:34;97857.22;;;24.48;53.51
79230;BME280;68663;49.122;17.544;2023-08-06T09:47:02;97850.00;;;24.47;53.45
79230;BME280;68663;49.122;17.544;2023-08-06T09:49:40;97851.59;;;24.48;53.35
79230;BME280;68663;49.122;17.544;2023-08-06T09:52:14;97856.44;;;24.48;53.40
79230;BME280;68663;49.122;17.544;2023-08-06T09:54:43;97854.09;;;24.46;53.42
79230;BME280;68663;49.122;17.544;2023-08-06T09:57:09;97860.84;;;24.49;53.39
79230;BME280;68663;49.122;17.544;2023-08-06T09:59:35;97864.13;;;24.47;53.58
79230;BME280;68663;49.122;17.544;2023-08-06T10:02:02;97858.81;;;24.49;53.56
79230;BME280;68663;49.122;17.544;2023-08-06T10:04:28;97870.88;;;24.50;53.50
79230;BME280;68663;49.122;17.544;2023-08-06T10:06:54;97869.78;;;24.47;53.37
79230;BME280;68663;49.122;17.544;2023-08-06T10:09:20;97867.75;;;24.48;53.23
79230;BME280;68663;49.122;17.544;2023-08-06T10:11:50;97879.38;;;24.50;53.43
79230;BME280;68663;49.122;17.544;2023-08-06T10:14:28;97876.22;;;24.48;53.28
79230;BME280;68663;49.122;17.544;2023-08-06T10:16:57;97882.66;;;24.48;53.94
79230;BME280;68663;49.122;17.544;2023-08-06T10:19:25;97892.38;;;24.47;53.72
79230;BME280;68663;49.122;17.544;2023-08-06T10:22:13;97891.59;;;24.47;53.92
79230;BME280;68663;49.122;17.544;2023-08-06T10:25:05;97898.50;;;24.45;54.11
79230;BME280;68663;49.122;17.544;2023-08-06T10:27:40;97903.38;;;24.45;54.03
79230;BME280;68663;49.122;17.544;2023-08-06T10:30:27;97906.97;;;24.45;54.11
79230;BME280;68663;49.122;17.544;2023-08-06T10:32:57;97906.53;;;24.47;54.02
79230;BME280;68663;49.122;17.544;2023-08-06T10:40:29;97902.28;;;24.52;53.79
79230;BME280;68663;49.122;17.544;2023-08-06T10:42:59;97906.38;;;24.51;53.97
79230;BME280;68663;49.122;17.544;2023-08-06T10:45:24;97912.00;;;24.51;53.79
79230;BME280;68663;49.122;17.544;2023-08-06T10:47:54;97902.28;;;24.52;53.65
79230;BME280;68663;49.122;17.544;2023-08-06T10:50:21;97904.31;;;24.51;53.71
79230;BME280;68663;49.122;17.544;2023-08-06T10:52:47;97903.84;;;24.53;54.01
79230;BME280;68663;49.122;17.544;2023-08-06T10:55:24;97905.44;;;24.54;53.80
79230;BME280;68663;49.122;17.544;2023-08-06T10:57:50;97906.38;;;24.51;54.02
79230;BME280;68663;49.122;17.544;2023-08-06T11:00:16;97906.69;;;24.53;54.26
79230;BME280;68663;49.122;17.544;2023-08-06T11:02:41;97913.59;;;24.52;54.19
79230;BME280;68663;49.122;17.544;2023-08-06T11:05:10;97911.88;;;24.54;54.50
79230;BME280;68663;49.122;17.544;2023-08-06T11:07:37;97912.34;;;24.62;54.75
79230;BME280;68663;49.122;17.544;2023-08-06T11:10:03;97912.97;;;24.66;56.31
79230;BME280;68663;49.122;17.544;2023-08-06T11:12:30;97918.97;;;24.77;60.09
79230;BME280;68663;49.122;17.544;2023-08-06T11:14:56;97921.47;;;24.84;60.95
79230;BME280;68663;49.122;17.544;2023-08-06T11:17:22;97927.44;;;24.86;60.53
79230;BME280;68663;49.122;17.544;2023-08-06T11:19:47;97926.50;;;24.89;60.63
79230;BME280;68663;49.122;17.544;2023-08-06T11:22:14;97932.00;;;24.93;61.70
79230;BME280;68663;49.122;17.544;2023-08-06T11:24:40;97938.28;;;24.97;61.56
79230;BME280;68663;49.122;17.544;2023-08-06T11:27:15;97937.38;;;25.00;61.09
79230;BME280;68663;49.122;17.544;2023-08-06T11:29:42;97945.69;;;25.03;61.29
79230;BME280;68663;49.122;17.544;2023-08-06T11:32:08;97950.72;;;25.08;60.17
79230;BME280;68663;49.122;17.544;2023-08-06T11:34:34;97950.72;;;25.08;59.94
79230;BME280;68663;49.122;17.544;2023-08-06T11:37:00;97960.31;;;25.11;60.42
79230;BME280;68663;49.122;17.544;2023-08-06T11:39:27;97963.03;;;25.15;60.75
79230;BME280;68663;49.122;17.544;2023-08-06T11:41:53;97971.97;;;25.22;60.37
79230;BME280;68663;49.122;17.544;2023-08-06T11:44:19;97968.69;;;25.24;58.87
79230;BME280;68663;49.122;17.544;2023-08-06T11:46:55;97974.97;;;25.28;59.90
79230;BME280;68663;49.122;17.544;2023-08-06T11:49:43;97967.56;;;25.30;60.61
79230;BME280;68663;49.122;17.544;2023-08-06T11:52:13;97968.66;;;25.33;60.08
79230;BME280;68663;49.122;17.544;2023-08-06T11:54:38;97976.53;;;25.29;60.15
79230;BME280;68663;49.122;17.544;2023-08-06T11:57:07;97970.56;;;25.27;59.04
79230;BME280;68663;49.122;17.544;2023-08-06T11:59:33;97968.34;;;25.31;58.38
79230;BME280;68663;49.122;17.544;2023-08-06T12:02:07;97973.06;;;25.34;57.24
79230;BME280;68663;49.122;17.544;2023-08-06T12:05:04;97965.38;;;25.34;58.78
79230;BME280;68663;49.122;17.544;2023-08-06T12:07:37;97965.84;;;25.33;58.91
79230;BME280;68663;49.122;17.544;2023-08-06T12:10:03;97969.94;;;25.32;58.70
79230;BME280;68663;49.122;17.544;2023-08-06T12:12:29;97968.97;;;25.35;59.21
79230;BME280;68663;49.122;17.544;2023-08-06T12:14:55;97978.72;;;25.34;59.64
79230;BME280;68663;49.122;17.544;2023-08-06T12:17:22;97981.25;;;25.32;58.95
79230;BME280;68663;49.122;17.544;2023-08-06T12:19:47;97989.25;;;25.33;58.05
79230;BME280;68663;49.122;17.544;2023-08-06T12:22:13;97991.31;;;25.33;57.34
79230;BME280;68663;49.122;17.544;2023-08-06T12:24:42;97988.47;;;25.33;56.92
79230;BME280;68663;49.122;17.544;2023-08-06T12:27:09;97992.56;;;25.32;57.01
79230;BME280;68663;49.122;17.544;2023-08-06T12:29:35;97991.78;;;25.31;56.80
79230;BME280;68663;49.122;17.544;2023-08-06T12:32:01;97999.16;;;25.29;56.52
79230;BME280;68663;49.122;17.544;2023-08-06T12:34:26;97999.16;;;25.29;56.93
79230;BME280;68663;49.122;17.544;2023-08-06T12:36:52;97994.75;;;25.28;56.78
79230;BME280;68663;49.122;17.544;2023-08-06T12:39:18;98004.50;;;25.27;56.50
79230;BME280;68663;49.122;17.544;2023-08-06T12:41:43;97996.03;;;25.27;56.59
79230;BME280;68663;49.122;17.544;2023-08-06T12:44:11;98002.94;;;25.26;56.26
79230;BME280;68663;49.122;17.544;2023-08-06T12:46:37;97996.50;;;25.25;56.42
79230;BME280;68663;49.122;17.544;2023-08-06T12:49:03;97994.13;;;25.24;56.10
79230;BME280;68663;49.122;17.544;2023-08-06T12:51:28;98005.13;;;25.22;56.03
79230;BME280;68663;49.122;17.544;2023-08-06T12:53:54;97997.91;;;25.21;55.87
79230;BME280;68663;49.122;17.544;2023-08-06T12:56:19;98003.56;;;25.21;55.89
79230;BME280;68663;49.122;17.544;2023-08-06T12:58:45;97993.81;;;25.22;56.22
79230;BME280;68663;49.122;17.544;2023-08-06T13:01:10;98005.91;;;25.22;55.82